sensor_id;sensor_type;location;lat;lon;timestamp;pressure;altitude;pressure_sealevel;temperature;humidity
8703;BME280;9002;42.708;23.186;2023-05-21T00:01:14;94836.19;;;18.80;nan
8703;BME280;9002;42.708;23.186;2023-05-21T00:03:42;94831.94;;;18.91;nan
8703;BME280;9002;42.708;23.186;2023-05-21T00:06:10;94838.53;;;18.93;nan
8703;BME280;9002;42.708;23.186;2023-05-21T00:08:40;94815.72;;;18.65;nan
8703;BME280;9002;42.708;23.186;2023-05-21T00:11:09;94831.94;;;18.91;nan
8703;BME280;9002;42.708;23.186;2023-05-21T00:13:36;94835.09;;;18.64;nan
8703;BME280;9002;42.708;23.186;2023-05-21T00:16:03;94835.56;;;18.61;nan
8703;BME280;9002;42.708;23.186;2023-05-21T00:18:30;94828.72;;;18.48;nan
8703;BME280;9002;42.708;23.186;2023-05-21T00:21:00;94812.84;;;18.38;nan
8703;BME280;9002;42.708;23.186;2023-05-21T00:23:27;94823.66;;;18.42;nan
8703;BME280;9002;42.708;23.186;2023-05-21T00:25:57;94826.88;;;18.21;nan
8703;BME280;9002;42.708;23.186;2023-05-21T00:28:24;94829.38;;;17.45;nan
8703;BME280;9002;42.708;23.186;2023-05-21T00:30:51;94825.50;;;16.83;nan
8703;BME280;9002;42.708;23.186;2023-05-21T00:33:18;94828.47;;;16.57;nan
8703;BME280;9002;42.708;23.186;2023-05-21T00:35:46;94831.41;;;16.78;nan
8703;BME280;9002;42.708;23.186;2023-05-21T00:38:14;94819.25;;;16.72;nan
8703;BME280;9002;42.708;23.186;2023-05-21T00:40:43;94822.44;;;16.86;nan
8703;BME280;9002;42.708;23.186;2023-05-21T00:43:10;94820.00;;;17.03;nan
8703;BME280;9002;42.708;23.186;2023-05-21T00:45:39;94813.78;;;17.15;nan
8703;BME280;9002;42.708;23.186;2023-05-21T00:48:09;94820.28;;;17.36;nan
8703;BME280;9002;42.708;23.186;2023-05-21T00:50:36;94817.41;;;17.14;nan
8703;BME280;9002;42.708;23.186;2023-05-21T00:53:04;94808.44;;;17.34;nan
8703;BME280;9002;42.708;23.186;2023-05-21T00:55:35;94823.00;;;17.41;nan
8703;BME280;9002;42.708;23.186;2023-05-21T00:58:03;94816.72;;;17.07;nan
8703;BME280;9002;42.708;23.186;2023-05-21T01:00:31;94817.28;;;17.09;nan
8703;BME280;9002;42.708;23.186;2023-05-21T01:02:59;94820.09;;;16.96;nan
8703;BME280;9002;42.708;23.186;2023-05-21T01:05:26;94778.06;;;17.09;nan
8703;BME280;9002;42.708;23.186;2023-05-21T01:07:54;94807.44;;;17.58;nan
8703;BME280;9002;42.708;23.186;2023-05-21T01:10:22;94813.63;;;17.87;nan
8703;BME280;9002;42.708;23.186;2023-05-21T01:12:52;94766.88;;;17.67;nan
8703;BME280;9002;42.708;23.186;2023-05-21T01:15:20;94812.59;;;17.88;nan
8703;BME280;9002;42.708;23.186;2023-05-21T01:17:47;94809.16;;;17.99;nan
8703;BME280;9002;42.708;23.186;2023-05-21T01:20:16;94806.19;;;17.96;nan
8703;BME280;9002;42.708;23.186;2023-05-21T01:22:53;94807.53;;;18.22;nan
8703;BME280;9002;42.708;23.186;2023-05-21T01:25:20;94803.41;;;18.26;nan
8703;BME280;9002;42.708;23.186;2023-05-21T01:27:47;94800.94;;;18.19;nan
8703;BME280;9002;42.708;23.186;2023-05-21T01:30:14;94802.19;;;17.11;nan
8703;BME280;9002;42.708;23.186;2023-05-21T01:32:47;94800.56;;;16.99;nan
8703;BME280;9002;42.708;23.186;2023-05-21T01:35:21;94799.81;;;17.57;nan
8703;BME280;9002;42.708;23.186;2023-05-21T01:37:52;94794.16;;;17.83;nan
8703;BME280;9002;42.708;23.186;2023-05-21T01:40:25;94797.81;;;17.82;nan
8703;BME280;9002;42.708;23.186;2023-05-21T01:42:55;94793.09;;;17.96;nan
8703;BME280;9002;42.708;23.186;2023-05-21T01:45:23;94802.81;;;17.72;nan
8703;BME280;9002;42.708;23.186;2023-05-21T01:47:52;94796.16;;;17.11;nan
8703;BME280;9002;42.708;23.186;2023-05-21T01:50:21;94797.09;;;17.28;nan
8703;BME280;9002;42.708;23.186;2023-05-21T01:52:49;94793.44;;;16.76;nan
8703;BME280;9002;42.708;23.186;2023-05-21T01:55:18;94804.50;;;16.90;nan
8703;BME280;9002;42.708;23.186;2023-05-21T01:57:49;94794.59;;;16.80;nan
8703;BME280;9002;42.708;23.186;2023-05-21T02:00:17;94792.06;;;17.15;nan
8703;BME280;9002;42.708;23.186;2023-05-21T02:02:45;94789.34;;;17.22;nan
8703;BME280;9002;42.708;23.186;2023-05-21T02:05:12;94784.03;;;17.28;nan
8703;BME280;9002;42.708;23.186;2023-05-21T02:07:39;94760.34;;;17.11;nan
8703;BME280;9002;42.708;23.186;2023-05-21T02:10:06;94787.84;;;17.02;nan
8703;BME280;9002;42.708;23.186;2023-05-21T02:12:35;94791.06;;;17.28;nan
8703;BME280;9002;42.708;23.186;2023-05-21T02:15:02;94787.19;;;17.42;nan
8703;BME280;9002;42.708;23.186;2023-05-21T02:17:30;94784.03;;;17.28;nan
8703;BME280;9002;42.708;23.186;2023-05-21T02:19:58;94743.72;;;16.94;nan
8703;BME280;9002;42.708;23.186;2023-05-21T02:22:35;94780.56;;;17.04;nan
8703;BME280;9002;42.708;23.186;2023-05-21T02:25:03;94777.88;;;17.23;nan
8703;BME280;9002;42.708;23.186;2023-05-21T02:27:30;94772.31;;;17.19;nan
8703;BME280;9002;42.708;23.186;2023-05-21T02:29:58;94782.72;;;17.07;nan
8703;BME280;9002;42.708;23.186;2023-05-21T02:32:25;94780.38;;;17.29;nan
8703;BME280;9002;42.708;23.186;2023-05-21T02:34:52;94780.94;;;17.43;nan
8703;BME280;9002;42.708;23.186;2023-05-21T02:37:20;94792.03;;;17.03;nan
8703;BME280;9002;42.708;23.186;2023-05-21T02:39:47;94783.72;;;16.95;nan
8703;BME280;9002;42.708;23.186;2023-05-21T02:42:14;94781.50;;;17.22;nan
8703;BME280;9002;42.708;23.186;2023-05-21T02:44:41;94777.53;;;17.31;nan
8703;BME280;9002;42.708;23.186;2023-05-21T02:47:09;94770.69;;;17.41;nan
8703;BME280;9002;42.708;23.186;2023-05-21T02:49:37;94775.38;;;17.39;nan
8703;BME280;9002;42.708;23.186;2023-05-21T02:52:04;94767.97;;;17.36;nan
8703;BME280;9002;42.708;23.186;2023-05-21T02:54:31;94767.84;;;17.43;nan
8703;BME280;9002;42.708;23.186;2023-05-21T02:56:58;94766.50;;;16.75;nan
8703;BME280;9002;42.708;23.186;2023-05-21T02:59:25;94768.59;;;16.85;nan
8703;BME280;9002;42.708;23.186;2023-05-21T03:01:52;94762.44;;;16.79;nan
8703;BME280;9002;42.708;23.186;2023-05-21T03:04:20;94768.59;;;16.85;nan
8703;BME280;9002;42.708;23.186;2023-05-21T03:06:48;94773.91;;;16.78;nan
8703;BME280;9002;42.708;23.186;2023-05-21T03:09:16;94748.81;;;16.47;nan
8703;BME280;9002;42.708;23.186;2023-05-21T03:11:43;94776.22;;;16.57;nan
8703;BME280;9002;42.708;23.186;2023-05-21T03:14:10;94780.06;;;16.84;nan
8703;BME280;9002;42.708;23.186;2023-05-21T03:16:37;94782.19;;;16.75;nan
8703;BME280;9002;42.708;23.186;2023-05-21T03:19:06;94778.31;;;17.08;nan
8703;BME280;9002;42.708;23.186;2023-05-21T03:21:34;94789.22;;;17.05;nan
8703;BME280;9002;42.708;23.186;2023-05-21T03:24:02;94750.09;;;16.98;nan
8703;BME280;9002;42.708;23.186;2023-05-21T03:26:29;94780.59;;;17.28;nan
8703;BME280;9002;42.708;23.186;2023-05-21T03:28:56;94783.78;;;17.41;nan
8703;BME280;9002;42.708;23.186;2023-05-21T03:31:23;94781.03;;;17.36;nan
8703;BME280;9002;42.708;23.186;2023-05-21T03:33:50;94790.41;;;17.32;nan
8703;BME280;9002;42.708;23.186;2023-05-21T03:36:18;94764.13;;;17.27;nan
8703;BME280;9002;42.708;23.186;2023-05-21T03:38:46;94790.16;;;17.45;nan
8703;BME280;9002;42.708;23.186;2023-05-21T03:41:13;94788.44;;;17.16;nan
8703;BME280;9002;42.708;23.186;2023-05-21T03:43:40;94786.50;;;17.46;nan
8703;BME280;9002;42.708;23.186;2023-05-21T03:46:07;94788.00;;;17.54;nan
8703;BME280;9002;42.708;23.186;2023-05-21T03:48:34;94787.63;;;17.15;nan
8703;BME280;9002;42.708;23.186;2023-05-21T03:51:01;94780.72;;;17.44;nan
8703;BME280;9002;42.708;23.186;2023-05-21T03:53:28;94787.78;;;17.32;nan
8703;BME280;9002;42.708;23.186;2023-05-21T03:55:56;94789.34;;;17.33;nan
8703;BME280;9002;42.708;23.186;2023-05-21T03:58:23;94790.03;;;17.17;nan
8703;BME280;9002;42.708;23.186;2023-05-21T04:00:51;94783.44;;;17.38;nan
8703;BME280;9002;42.708;23.186;2023-05-21T04:03:18;94778.06;;;17.09;nan
8703;BME280;9002;42.708;23.186;2023-05-21T04:05:45;94782.63;;;17.14;nan
8703;BME280;9002;42.708;23.186;2023-05-21T04:08:13;94784.56;;;17.19;nan
8703;BME280;9002;42.708;23.186;2023-05-21T04:10:40;94793.09;;;17.37;nan
8703;BME280;9002;42.708;23.186;2023-05-21T04:13:08;94783.34;;;17.56;nan
8703;BME280;9002;42.708;23.186;2023-05-21T04:15:35;94784.72;;;17.70;nan
8703;BME280;9002;42.708;23.186;2023-05-21T04:18:03;94782.09;;;17.59;nan
8703;BME280;9002;42.708;23.186;2023-05-21T04:20:31;94786.06;;;17.61;nan
8703;BME280;9002;42.708;23.186;2023-05-21T04:22:58;94782.22;;;17.29;nan
8703;BME280;9002;42.708;23.186;2023-05-21T04:25:25;94781.41;;;17.52;nan
8703;BME280;9002;42.708;23.186;2023-05-21T04:27:52;94779.19;;;18.07;nan
8703;BME280;9002;42.708;23.186;2023-05-21T04:30:21;94782.69;;;17.72;nan
8703;BME280;9002;42.708;23.186;2023-05-21T04:32:48;94784.53;;;18.12;nan
8703;BME280;9002;42.708;23.186;2023-05-21T04:35:17;94793.78;;;18.03;nan
8703;BME280;9002;42.708;23.186;2023-05-21T04:37:44;94781.59;;;18.08;nan
8703;BME280;9002;42.708;23.186;2023-05-21T04:40:11;94785.81;;;17.98;nan
8703;BME280;9002;42.708;23.186;2023-05-21T04:42:43;94784.72;;;18.34;nan
8703;BME280;9002;42.708;23.186;2023-05-21T04:45:11;94786.44;;;18.57;nan
8703;BME280;9002;42.708;23.186;2023-05-21T04:47:39;94784.19;;;18.60;nan
8703;BME280;9002;42.708;23.186;2023-05-21T04:50:07;94790.00;;;18.51;nan
8703;BME280;9002;42.708;23.186;2023-05-21T04:52:35;94757.38;;;18.58;nan
8703;BME280;9002;42.708;23.186;2023-05-21T04:55:03;94775.94;;;18.97;nan
8703;BME280;9002;42.708;23.186;2023-05-21T04:57:30;94780.94;;;19.15;nan
8703;BME280;9002;42.708;23.186;2023-05-21T04:59:57;94775.06;;;19.25;nan
8703;BME280;9002;42.708;23.186;2023-05-21T05:02:24;94783.78;;;19.30;nan
8703;BME280;9002;42.708;23.186;2023-05-21T05:04:52;94782.38;;;19.06;nan
8703;BME280;9002;42.708;23.186;2023-05-21T05:07:19;94775.69;;;18.98;nan
8703;BME280;9002;42.708;23.186;2023-05-21T05:09:47;94784.63;;;18.57;nan
8703;BME280;9002;42.708;23.186;2023-05-21T05:12:14;94783.34;;;18.71;nan
8703;BME280;9002;42.708;23.186;2023-05-21T05:14:41;94779.03;;;18.94;nan
8703;BME280;9002;42.708;23.186;2023-05-21T05:17:08;94780.28;;;19.25;nan
8703;BME280;9002;42.708;23.186;2023-05-21T05:19:35;94767.41;;;19.06;nan
8703;BME280;9002;42.708;23.186;2023-05-21T05:22:03;94778.38;;;19.20;nan
8703;BME280;9002;42.708;23.186;2023-05-21T05:24:30;94783.72;;;19.42;nan
8703;BME280;9002;42.708;23.186;2023-05-21T05:26:57;94782.47;;;19.61;nan
8703;BME280;9002;42.708;23.186;2023-05-21T05:29:24;94780.28;;;19.75;nan
8703;BME280;9002;42.708;23.186;2023-05-21T05:31:51;94778.81;;;19.62;nan
8703;BME280;9002;42.708;23.186;2023-05-21T05:34:18;94780.41;;;19.63;nan
8703;BME280;9002;42.708;23.186;2023-05-21T05:36:46;94777.78;;;19.85;nan
8703;BME280;9002;42.708;23.186;2023-05-21T05:39:14;94769.66;;;19.31;nan
8703;BME280;9002;42.708;23.186;2023-05-21T05:41:41;94774.09;;;19.64;nan
8703;BME280;9002;42.708;23.186;2023-05-21T05:44:08;94780.41;;;19.63;nan
8703;BME280;9002;42.708;23.186;2023-05-21T05:46:35;94772.69;;;19.57;nan
8703;BME280;9002;42.708;23.186;2023-05-21T05:49:02;94765.59;;;19.96;nan
8703;BME280;9002;42.708;23.186;2023-05-21T05:51:29;94768.16;;;19.91;nan
8703;BME280;9002;42.708;23.186;2023-05-21T05:53:56;94769.81;;;20.19;nan
8703;BME280;9002;42.708;23.186;2023-05-21T05:56:24;94769.38;;;20.05;nan
8703;BME280;9002;42.708;23.186;2023-05-21T05:58:51;94776.47;;;19.66;nan
8703;BME280;9002;42.708;23.186;2023-05-21T06:01:18;94771.69;;;20.01;nan
8703;BME280;9002;42.708;23.186;2023-05-21T06:03:47;94773.88;;;19.88;nan
8703;BME280;9002;42.708;23.186;2023-05-21T06:06:14;94774.63;;;20.05;nan
8703;BME280;9002;42.708;23.186;2023-05-21T06:08:41;94767.03;;;20.30;nan
8703;BME280;9002;42.708;23.186;2023-05-21T06:11:08;94766.88;;;19.93;nan
8703;BME280;9002;42.708;23.186;2023-05-21T06:13:37;94765.16;;;19.82;nan
8703;BME280;9002;42.708;23.186;2023-05-21T06:16:05;94765.16;;;19.82;nan
8703;BME280;9002;42.708;23.186;2023-05-21T06:18:32;94760.50;;;19.89;nan
8703;BME280;9002;42.708;23.186;2023-05-21T06:20:58;94759.84;;;19.99;nan
8703;BME280;9002;42.708;23.186;2023-05-21T06:23:26;94762.66;;;19.54;nan
8703;BME280;9002;42.708;23.186;2023-05-21T06:25:53;94757.16;;;19.38;nan
8703;BME280;9002;42.708;23.186;2023-05-21T06:28:19;94760.97;;;20.03;nan
8703;BME280;9002;42.708;23.186;2023-05-21T06:30:48;94747.06;;;20.29;nan
8703;BME280;9002;42.708;23.186;2023-05-21T06:33:15;94755.66;;;20.68;nan
8703;BME280;9002;42.708;23.186;2023-05-21T06:35:42;94755.34;;;20.38;nan
8703;BME280;9002;42.708;23.186;2023-05-21T06:38:09;94751.56;;;19.68;nan
8703;BME280;9002;42.708;23.186;2023-05-21T06:40:36;94735.25;;;19.66;nan
8703;BME280;9002;42.708;23.186;2023-05-21T06:43:03;94753.81;;;20.42;nan
8703;BME280;9002;42.708;23.186;2023-05-21T06:45:30;94751.00;;;20.05;nan
8703;BME280;9002;42.708;23.186;2023-05-21T06:47:58;94753.44;;;19.51;nan
8703;BME280;9002;42.708;23.186;2023-05-21T06:50:25;94745.66;;;19.78;nan
8703;BME280;9002;42.708;23.186;2023-05-21T06:52:52;94742.31;;;20.04;nan
8703;BME280;9002;42.708;23.186;2023-05-21T06:55:19;94740.44;;;20.70;nan
8703;BME280;9002;42.708;23.186;2023-05-21T06:57:46;94745.66;;;20.65;nan
8703;BME280;9002;42.708;23.186;2023-05-21T07:00:13;94742.25;;;20.97;nan
8703;BME280;9002;42.708;23.186;2023-05-21T07:02:40;94742.88;;;21.09;nan
8703;BME280;9002;42.708;23.186;2023-05-21T07:05:09;94737.06;;;20.75;nan
8703;BME280;9002;42.708;23.186;2023-05-21T07:07:36;94733.31;;;20.22;nan
8703;BME280;9002;42.708;23.186;2023-05-21T07:10:03;94730.47;;;20.72;nan
8703;BME280;9002;42.708;23.186;2023-05-21T07:12:30;94733.16;;;20.83;nan
8703;BME280;9002;42.708;23.186;2023-05-21T07:14:57;94725.84;;;20.58;nan
8703;BME280;9002;42.708;23.186;2023-05-21T07:17:24;94726.56;;;20.80;nan
8703;BME280;9002;42.708;23.186;2023-05-21T07:19:51;94731.38;;;20.88;nan
8703;BME280;9002;42.708;23.186;2023-05-21T07:22:20;94732.66;;;20.86;nan
8703;BME280;9002;42.708;23.186;2023-05-21T07:24:47;94729.72;;;21.09;nan
8703;BME280;9002;42.708;23.186;2023-05-21T07:27:14;94733.69;;;20.53;nan
8703;BME280;9002;42.708;23.186;2023-05-21T07:29:41;94735.13;;;21.24;nan
8703;BME280;9002;42.708;23.186;2023-05-21T07:32:08;94733.94;;;21.10;nan
8703;BME280;9002;42.708;23.186;2023-05-21T07:34:35;94725.09;;;20.62;nan
8703;BME280;9002;42.708;23.186;2023-05-21T07:37:02;94741.72;;;20.41;nan
8703;BME280;9002;42.708;23.186;2023-05-21T07:39:30;94717.06;;;20.74;nan
8703;BME280;9002;42.708;23.186;2023-05-21T07:41:57;94728.28;;;20.96;nan
8703;BME280;9002;42.708;23.186;2023-05-21T07:44:24;94726.97;;;21.68;nan
8703;BME280;9002;42.708;23.186;2023-05-21T07:46:51;94731.72;;;21.71;nan
8703;BME280;9002;42.708;23.186;2023-05-21T07:49:18;94730.75;;;21.82;nan
8703;BME280;9002;42.708;23.186;2023-05-21T07:51:45;94722.94;;;22.02;nan
8703;BME280;9002;42.708;23.186;2023-05-21T07:54:12;94728.81;;;22.25;nan
8703;BME280;9002;42.708;23.186;2023-05-21T07:56:40;94711.41;;;21.61;nan
8703;BME280;9002;42.708;23.186;2023-05-21T07:59:07;94721.44;;;22.22;nan
8703;BME280;9002;42.708;23.186;2023-05-21T08:01:34;94717.06;;;21.85;nan
8703;BME280;9002;42.708;23.186;2023-05-21T08:04:02;94722.59;;;21.89;nan
8703;BME280;9002;42.708;23.186;2023-05-21T08:06:31;94720.41;;;22.33;nan
8703;BME280;9002;42.708;23.186;2023-05-21T08:08:59;94719.06;;;22.25;nan
8703;BME280;9002;42.708;23.186;2023-05-21T08:11:26;94699.19;;;21.92;nan
8703;BME280;9002;42.708;23.186;2023-05-21T08:13:55;94721.38;;;22.06;nan
8703;BME280;9002;42.708;23.186;2023-05-21T08:16:22;94731.16;;;22.16;nan
8703;BME280;9002;42.708;23.186;2023-05-21T08:18:49;94717.59;;;21.87;nan
8703;BME280;9002;42.708;23.186;2023-05-21T08:21:16;94726.41;;;22.13;nan
8703;BME280;9002;42.708;23.186;2023-05-21T08:23:43;94721.78;;;22.51;nan
8703;BME280;9002;42.708;23.186;2023-05-21T08:26:10;94715.69;;;22.40;nan
8703;BME280;9002;42.708;23.186;2023-05-21T08:28:37;94714.13;;;22.49;nan
8703;BME280;9002;42.708;23.186;2023-05-21T08:31:05;94715.47;;;22.72;nan
8703;BME280;9002;42.708;23.186;2023-05-21T08:33:33;94712.09;;;22.92;nan
8703;BME280;9002;42.708;23.186;2023-05-21T08:36:01;94720.28;;;23.21;nan
8703;BME280;9002;42.708;23.186;2023-05-21T08:38:28;94716.84;;;22.80;nan
8703;BME280;9002;42.708;23.186;2023-05-21T08:40:57;94716.16;;;22.17;nan
8703;BME280;9002;42.708;23.186;2023-05-21T08:43:26;94724.00;;;22.01;nan
8703;BME280;9002;42.708;23.186;2023-05-21T08:45:55;94692.72;;;22.25;nan
8703;BME280;9002;42.708;23.186;2023-05-21T08:48:25;94711.25;;;22.61;nan
8703;BME280;9002;42.708;23.186;2023-05-21T08:50:52;94718.44;;;22.86;nan
8703;BME280;9002;42.708;23.186;2023-05-21T08:53:20;94704.94;;;23.28;nan
8703;BME280;9002;42.708;23.186;2023-05-21T08:55:49;94703.09;;;23.49;nan
8703;BME280;9002;42.708;23.186;2023-05-21T08:58:18;94698.59;;;23.39;nan
8703;BME280;9002;42.708;23.186;2023-05-21T09:00:45;94711.28;;;23.42;nan
8703;BME280;9002;42.708;23.186;2023-05-21T09:03:13;94711.28;;;23.22;nan
8703;BME280;9002;42.708;23.186;2023-05-21T09:05:43;94717.34;;;23.58;nan
8703;BME280;9002;42.708;23.186;2023-05-21T09:08:13;94720.47;;;23.75;nan
8703;BME280;9002;42.708;23.186;2023-05-21T09:10:47;94714.41;;;23.69;nan
8703;BME280;9002;42.708;23.186;2023-05-21T09:13:15;94715.16;;;23.85;nan
8703;BME280;9002;42.708;23.186;2023-05-21T09:15:43;94698.13;;;24.17;nan
8703;BME280;9002;42.708;23.186;2023-05-21T09:18:10;94713.31;;;23.86;nan
8703;BME280;9002;42.708;23.186;2023-05-21T09:20:37;94704.16;;;23.37;nan
8703;BME280;9002;42.708;23.186;2023-05-21T09:23:07;94711.66;;;24.10;nan
8703;BME280;9002;42.708;23.186;2023-05-21T09:25:37;94688.06;;;24.24;nan
8703;BME280;9002;42.708;23.186;2023-05-21T09:28:10;94713.41;;;24.30;nan
8703;BME280;9002;42.708;23.186;2023-05-21T09:30:43;94718.56;;;23.91;nan
8703;BME280;9002;42.708;23.186;2023-05-21T09:33:10;94685.91;;;24.31;nan
8703;BME280;9002;42.708;23.186;2023-05-21T09:35:43;94706.34;;;24.64;nan
8703;BME280;9002;42.708;23.186;2023-05-21T09:38:12;94708.81;;;24.51;nan
8703;BME280;9002;42.708;23.186;2023-05-21T09:40:42;94708.72;;;24.12;nan
8703;BME280;9002;42.708;23.186;2023-05-21T09:43:12;94707.91;;;24.16;nan
8703;BME280;9002;42.708;23.186;2023-05-21T09:45:49;94697.06;;;24.23;nan
8703;BME280;9002;42.708;23.186;2023-05-21T09:48:16;94704.28;;;24.02;nan
8703;BME280;9002;42.708;23.186;2023-05-21T09:50:43;94670.41;;;24.09;nan
8703;BME280;9002;42.708;23.186;2023-05-21T09:53:12;94704.59;;;23.85;nan
8703;BME280;9002;42.708;23.186;2023-05-21T09:55:39;94700.88;;;23.91;nan
8703;BME280;9002;42.708;23.186;2023-05-21T09:58:07;94703.28;;;24.47;nan
8703;BME280;9002;42.708;23.186;2023-05-21T10:00:36;94691.19;;;25.14;nan
8703;BME280;9002;42.708;23.186;2023-05-21T10:03:08;94693.53;;;24.82;nan
8703;BME280;9002;42.708;23.186;2023-05-21T10:05:37;94673.16;;;24.43;nan
8703;BME280;9002;42.708;23.186;2023-05-21T10:08:07;94685.91;;;24.31;nan
8703;BME280;9002;42.708;23.186;2023-05-21T10:10:37;94693.25;;;24.44;nan
8703;BME280;9002;42.708;23.186;2023-05-21T10:13:08;94693.63;;;24.66;nan
8703;BME280;9002;42.708;23.186;2023-05-21T10:15:39;94690.78;;;24.92;nan
8703;BME280;9002;42.708;23.186;2023-05-21T10:18:09;94684.78;;;25.20;nan
8703;BME280;9002;42.708;23.186;2023-05-21T10:20:37;94678.00;;;25.38;nan
8703;BME280;9002;42.708;23.186;2023-05-21T10:23:04;94681.03;;;24.87;nan
8703;BME280;9002;42.708;23.186;2023-05-21T10:25:32;94675.84;;;24.77;nan
8703;BME280;9002;42.708;23.186;2023-05-21T10:28:01;94677.88;;;25.48;nan
8703;BME280;9002;42.708;23.186;2023-05-21T10:30:28;94676.06;;;25.73;nan
8703;BME280;9002;42.708;23.186;2023-05-21T10:32:57;94658.53;;;25.77;nan
8703;BME280;9002;42.708;23.186;2023-05-21T10:35:26;94662.41;;;26.27;nan
8703;BME280;9002;42.708;23.186;2023-05-21T10:37:53;94634.03;;;26.46;nan
8703;BME280;9002;42.708;23.186;2023-05-21T10:40:20;94657.38;;;26.63;nan
8703;BME280;9002;42.708;23.186;2023-05-21T10:43:20;94666.75;;;25.75;nan
8703;BME280;9002;42.708;23.186;2023-05-21T10:46:10;94676.75;;;25.83;nan
8703;BME280;9002;42.708;23.186;2023-05-21T10:48:55;94675.16;;;25.82;nan
8703;BME280;9002;42.708;23.186;2023-05-21T10:51:27;94663.66;;;26.11;nan
8703;BME280;9002;42.708;23.186;2023-05-21T10:54:43;94668.66;;;25.93;nan
8703;BME280;9002;42.708;23.186;2023-05-21T10:57:24;94672.34;;;25.97;nan
8703;BME280;9002;42.708;23.186;2023-05-21T10:59:56;94668.69;;;25.41;nan
8703;BME280;9002;42.708;23.186;2023-05-21T11:02:25;94671.31;;;25.93;nan
8703;BME280;9002;42.708;23.186;2023-05-21T11:04:57;94680.00;;;25.22;nan
8703;BME280;9002;42.708;23.186;2023-05-21T11:07:49;94671.09;;;24.30;nan
8703;BME280;9002;42.708;23.186;2023-05-21T11:10:29;94676.56;;;23.89;nan
8703;BME280;9002;42.708;23.186;2023-05-21T11:13:11;94673.16;;;24.38;nan
8703;BME280;9002;42.708;23.186;2023-05-21T11:16:06;94667.78;;;24.53;nan
8703;BME280;9002;42.708;23.186;2023-05-21T11:19:01;94667.09;;;23.78;nan
8703;BME280;9002;42.708;23.186;2023-05-21T11:24:06;94661.94;;;24.12;nan
8703;BME280;9002;42.708;23.186;2023-05-21T11:27:03;94652.88;;;25.01;nan
8703;BME280;9002;42.708;23.186;2023-05-21T11:29:41;94654.31;;;25.47;nan
8703;BME280;9002;42.708;23.186;2023-05-21T11:32:11;94654.06;;;25.19;nan
8703;BME280;9002;42.708;23.186;2023-05-21T11:34:41;94648.16;;;25.51;nan
8703;BME280;9002;42.708;23.186;2023-05-21T11:37:23;94648.25;;;25.70;nan
8703;BME280;9002;42.708;23.186;2023-05-21T11:39:53;94644.25;;;25.73;nan
8703;BME280;9002;42.708;23.186;2023-05-21T11:42:31;94642.63;;;25.24;nan
8703;BME280;9002;42.708;23.186;2023-05-21T11:44:59;94648.06;;;24.75;nan
8703;BME280;9002;42.708;23.186;2023-05-21T11:47:28;94644.44;;;24.94;nan
8703;BME280;9002;42.708;23.186;2023-05-21T11:49:57;94646.00;;;24.66;nan
8703;BME280;9002;42.708;23.186;2023-05-21T11:52:25;94640.63;;;23.83;nan
8703;BME280;9002;42.708;23.186;2023-05-21T11:54:54;94646.31;;;23.36;nan
8703;BME280;9002;42.708;23.186;2023-05-21T11:57:24;94633.91;;;23.36;nan
8703;BME280;9002;42.708;23.186;2023-05-21T11:59:55;94630.38;;;23.71;nan
8703;BME280;9002;42.708;23.186;2023-05-21T12:02:24;94631.84;;;24.47;nan
8703;BME280;9002;42.708;23.186;2023-05-21T12:04:54;94640.00;;;24.07;nan
8703;BME280;9002;42.708;23.186;2023-05-21T12:07:26;94635.91;;;23.75;nan
8703;BME280;9002;42.708;23.186;2023-05-21T12:09:54;94629.59;;;23.71;nan
8703;BME280;9002;42.708;23.186;2023-05-21T12:12:24;94637.31;;;23.47;nan
8703;BME280;9002;42.708;23.186;2023-05-21T12:14:53;94637.94;;;22.98;nan
8703;BME280;9002;42.708;23.186;2023-05-21T12:17:22;94618.13;;;22.60;nan
8703;BME280;9002;42.708;23.186;2023-05-21T12:19:50;94629.25;;;22.93;nan
8703;BME280;9002;42.708;23.186;2023-05-21T12:22:19;94632.38;;;22.39;nan
8703;BME280;9002;42.708;23.186;2023-05-21T12:24:46;94630.47;;;22.14;nan
8703;BME280;9002;42.708;23.186;2023-05-21T12:27:14;94634.06;;;21.83;nan
8703;BME280;9002;42.708;23.186;2023-05-21T12:29:42;94632.66;;;21.60;nan
8703;BME280;9002;42.708;23.186;2023-05-21T12:32:10;94633.38;;;22.13;nan
8703;BME280;9002;42.708;23.186;2023-05-21T12:34:38;94636.19;;;21.96;nan
8703;BME280;9002;42.708;23.186;2023-05-21T12:37:06;94626.56;;;22.37;nan
8703;BME280;9002;42.708;23.186;2023-05-21T12:39:38;94624.47;;;22.69;nan
8703;BME280;9002;42.708;23.186;2023-05-21T12:42:06;94617.09;;;22.71;nan
8703;BME280;9002;42.708;23.186;2023-05-21T12:44:33;94612.88;;;22.76;nan
8703;BME280;9002;42.708;23.186;2023-05-21T12:47:01;94618.38;;;23.15;nan
8703;BME280;9002;42.708;23.186;2023-05-21T12:49:35;94601.81;;;22.89;nan
8703;BME280;9002;42.708;23.186;2023-05-21T12:52:04;94613.03;;;23.40;nan
8703;BME280;9002;42.708;23.186;2023-05-21T12:54:35;94614.44;;;22.77;nan
8703;BME280;9002;42.708;23.186;2023-05-21T12:57:12;94609.69;;;22.68;nan
8703;BME280;9002;42.708;23.186;2023-05-21T12:59:45;94614.47;;;23.02;nan
8703;BME280;9002;42.708;23.186;2023-05-21T13:02:17;94573.31;;;22.86;nan
8703;BME280;9002;42.708;23.186;2023-05-21T13:04:45;94617.81;;;23.28;nan
8703;BME280;9002;42.708;23.186;2023-05-21T13:07:12;94612.72;;;23.67;nan
8703;BME280;9002;42.708;23.186;2023-05-21T13:09:40;94614.88;;;23.55;nan
8703;BME280;9002;42.708;23.186;2023-05-21T13:12:07;94615.25;;;22.87;nan
8703;BME280;9002;42.708;23.186;2023-05-21T13:14:36;94611.75;;;23.32;nan
8703;BME280;9002;42.708;23.186;2023-05-21T13:17:03;94614.47;;;22.92;nan
8703;BME280;9002;42.708;23.186;2023-05-21T13:19:30;94615.53;;;22.86;nan
8703;BME280;9002;42.708;23.186;2023-05-21T13:21:57;94616.31;;;22.81;nan
8703;BME280;9002;42.708;23.186;2023-05-21T13:24:24;94610.25;;;23.01;nan
8703;BME280;9002;42.708;23.186;2023-05-21T13:26:51;94605.44;;;23.23;nan
8703;BME280;9002;42.708;23.186;2023-05-21T13:29:18;94608.66;;;23.05;nan
8703;BME280;9002;42.708;23.186;2023-05-21T13:31:46;94606.97;;;23.45;nan
8703;BME280;9002;42.708;23.186;2023-05-21T13:34:13;94611.50;;;23.19;nan
8703;BME280;9002;42.708;23.186;2023-05-21T13:36:40;94610.88;;;23.62;nan
8703;BME280;9002;42.708;23.186;2023-05-21T13:39:07;94608.28;;;23.47;nan
8703;BME280;9002;42.708;23.186;2023-05-21T13:41:34;94601.41;;;23.56;nan
8703;BME280;9002;42.708;23.186;2023-05-21T13:44:01;94609.50;;;23.70;nan